Terminal Aerodrome Forecast
Issued by NWS

Home | Current Version | Previous Version | Text Only | Print | Product List | Glossary On
Versions: 1 2 3 4 5 6 7 8 9 10 11 12
715
FTUS45 KPIH 111120
TAFSUN
TAF
KSUN 111120Z 1112/1212 31008KT P6SM SCT090 SCT130
     FM111900 13007KT P6SM BKN080 OVC130
     FM120200 31008KT P6SM SCT130
      AMD LTD TO CLD VIS AND WIND TIL 111400=

USA.gov is the U.S. government's official web portal to all federal, state and local government web resources and services.